sensor_id;sensor_type;location;lat;lon;timestamp;temperature;humidity
7046;DHT22;3564;53.326;10.356;2023-04-03T00:02:07;6.60;90.10
7046;DHT22;3564;53.326;10.356;2023-04-03T00:04:32;6.60;90.20
7046;DHT22;3564;53.326;10.356;2023-04-03T00:06:58;6.60;90.30
7046;DHT22;3564;53.326;10.356;2023-04-03T00:09:24;6.60;90.40
7046;DHT22;3564;53.326;10.356;2023-04-03T00:11:49;6.50;90.30
7046;DHT22;3564;53.326;10.356;2023-04-03T00:14:16;6.50;90.60
7046;DHT22;3564;53.326;10.356;2023-04-03T00:16:43;6.50;90.40
7046;DHT22;3564;53.326;10.356;2023-04-03T00:19:09;6.50;90.30
7046;DHT22;3564;53.326;10.356;2023-04-03T00:21:37;6.50;90.30
7046;DHT22;3564;53.326;10.356;2023-04-03T00:24:02;6.40;90.20
7046;DHT22;3564;53.326;10.356;2023-04-03T00:26:28;6.40;90.30
7046;DHT22;3564;53.326;10.356;2023-04-03T00:28:54;6.40;90.40
7046;DHT22;3564;53.326;10.356;2023-04-03T00:31:19;6.40;90.50
7046;DHT22;3564;53.326;10.356;2023-04-03T00:33:47;6.40;90.60
7046;DHT22;3564;53.326;10.356;2023-04-03T00:36:12;6.30;90.50
7046;DHT22;3564;53.326;10.356;2023-04-03T00:38:38;6.30;90.60
7046;DHT22;3564;53.326;10.356;2023-04-03T00:41:05;6.30;90.60
7046;DHT22;3564;53.326;10.356;2023-04-03T00:43:31;6.30;90.70
7046;DHT22;3564;53.326;10.356;2023-04-03T00:45:58;6.30;90.60
7046;DHT22;3564;53.326;10.356;2023-04-03T00:48:56;6.30;90.60
7046;DHT22;3564;53.326;10.356;2023-04-03T00:51:25;6.30;90.70
7046;DHT22;3564;53.326;10.356;2023-04-03T00:54:03;6.20;90.60
7046;DHT22;3564;53.326;10.356;2023-04-03T00:56:31;6.20;90.60
7046;DHT22;3564;53.326;10.356;2023-04-03T00:59:04;6.20;90.70
7046;DHT22;3564;53.326;10.356;2023-04-03T01:01:31;6.20;90.70
7046;DHT22;3564;53.326;10.356;2023-04-03T01:03:59;6.20;90.70
7046;DHT22;3564;53.326;10.356;2023-04-03T01:06:27;6.20;90.80
7046;DHT22;3564;53.326;10.356;2023-04-03T01:08:54;6.20;90.80
7046;DHT22;3564;53.326;10.356;2023-04-03T01:11:20;6.20;90.80
7046;DHT22;3564;53.326;10.356;2023-04-03T01:13:47;6.10;90.80
7046;DHT22;3564;53.326;10.356;2023-04-03T01:16:13;6.10;90.80
7046;DHT22;3564;53.326;10.356;2023-04-03T01:18:39;6.10;90.90
7046;DHT22;3564;53.326;10.356;2023-04-03T01:23:42;6.10;90.90
7046;DHT22;3564;53.326;10.356;2023-04-03T01:26:09;6.00;90.80
7046;DHT22;3564;53.326;10.356;2023-04-03T01:28:36;6.00;90.90
7046;DHT22;3564;53.326;10.356;2023-04-03T01:31:25;6.00;90.90
7046;DHT22;3564;53.326;10.356;2023-04-03T01:33:55;5.90;90.90
7046;DHT22;3564;53.326;10.356;2023-04-03T01:36:26;5.90;91.00
7046;DHT22;3564;53.326;10.356;2023-04-03T01:38:54;5.90;90.90
7046;DHT22;3564;53.326;10.356;2023-04-03T01:41:21;5.90;91.10
7046;DHT22;3564;53.326;10.356;2023-04-03T01:43:48;5.80;90.90
7046;DHT22;3564;53.326;10.356;2023-04-03T01:46:17;5.80;90.90
7046;DHT22;3564;53.326;10.356;2023-04-03T01:48:43;5.70;90.90
7046;DHT22;3564;53.326;10.356;2023-04-03T01:51:09;5.70;91.00
7046;DHT22;3564;53.326;10.356;2023-04-03T01:53:35;5.70;91.10
7046;DHT22;3564;53.326;10.356;2023-04-03T01:56:00;5.60;91.00
7046;DHT22;3564;53.326;10.356;2023-04-03T01:58:26;5.60;91.00
7046;DHT22;3564;53.326;10.356;2023-04-03T02:00:52;5.50;91.10
7046;DHT22;3564;53.326;10.356;2023-04-03T02:03:18;5.50;91.20
7046;DHT22;3564;53.326;10.356;2023-04-03T02:05:44;5.50;91.10
7046;DHT22;3564;53.326;10.356;2023-04-03T02:08:10;5.50;91.20
7046;DHT22;3564;53.326;10.356;2023-04-03T02:10:37;5.50;91.10
7046;DHT22;3564;53.326;10.356;2023-04-03T02:13:02;5.50;91.20
7046;DHT22;3564;53.326;10.356;2023-04-03T02:15:28;5.50;91.20
7046;DHT22;3564;53.326;10.356;2023-04-03T02:17:53;5.50;91.20
7046;DHT22;3564;53.326;10.356;2023-04-03T02:20:19;5.40;91.10
7046;DHT22;3564;53.326;10.356;2023-04-03T02:22:45;5.40;91.20
7046;DHT22;3564;53.326;10.356;2023-04-03T02:25:11;5.40;91.10
7046;DHT22;3564;53.326;10.356;2023-04-03T02:27:37;5.30;91.10
7046;DHT22;3564;53.326;10.356;2023-04-03T02:30:04;5.30;91.20
7046;DHT22;3564;53.326;10.356;2023-04-03T02:32:30;5.30;91.10
7046;DHT22;3564;53.326;10.356;2023-04-03T02:34:56;5.30;91.10
7046;DHT22;3564;53.326;10.356;2023-04-03T02:37:21;5.30;91.10
7046;DHT22;3564;53.326;10.356;2023-04-03T02:39:47;5.20;91.00
7046;DHT22;3564;53.326;10.356;2023-04-03T02:42:13;5.20;91.00
7046;DHT22;3564;53.326;10.356;2023-04-03T02:44:39;5.20;91.00
7046;DHT22;3564;53.326;10.356;2023-04-03T02:47:05;5.20;90.90
7046;DHT22;3564;53.326;10.356;2023-04-03T02:49:31;5.20;90.90
7046;DHT22;3564;53.326;10.356;2023-04-03T02:51:56;5.10;90.80
7046;DHT22;3564;53.326;10.356;2023-04-03T02:54:22;5.10;90.80
7046;DHT22;3564;53.326;10.356;2023-04-03T02:56:48;5.10;90.90
7046;DHT22;3564;53.326;10.356;2023-04-03T02:59:14;5.00;90.90
7046;DHT22;3564;53.326;10.356;2023-04-03T03:01:40;5.00;90.90
7046;DHT22;3564;53.326;10.356;2023-04-03T03:04:05;4.90;91.00
7046;DHT22;3564;53.326;10.356;2023-04-03T03:06:31;4.90;91.20
7046;DHT22;3564;53.326;10.356;2023-04-03T03:08:57;4.90;91.20
7046;DHT22;3564;53.326;10.356;2023-04-03T03:11:22;4.90;91.30
7046;DHT22;3564;53.326;10.356;2023-04-03T03:13:49;4.90;91.40
7046;DHT22;3564;53.326;10.356;2023-04-03T03:16:14;4.90;91.50
7046;DHT22;3564;53.326;10.356;2023-04-03T03:18:40;4.80;91.40
7046;DHT22;3564;53.326;10.356;2023-04-03T03:21:06;4.80;91.70
7046;DHT22;3564;53.326;10.356;2023-04-03T03:23:32;4.80;91.50
7046;DHT22;3564;53.326;10.356;2023-04-03T03:26:09;4.80;91.70
7046;DHT22;3564;53.326;10.356;2023-04-03T03:28:37;4.80;91.40
7046;DHT22;3564;53.326;10.356;2023-04-03T03:31:03;4.70;91.40
7046;DHT22;3564;53.326;10.356;2023-04-03T03:33:31;4.70;91.50
7046;DHT22;3564;53.326;10.356;2023-04-03T03:35:57;4.70;91.50
7046;DHT22;3564;53.326;10.356;2023-04-03T03:38:23;4.70;91.60
7046;DHT22;3564;53.326;10.356;2023-04-03T03:40:50;4.70;91.60
7046;DHT22;3564;53.326;10.356;2023-04-03T03:43:17;4.60;91.50
7046;DHT22;3564;53.326;10.356;2023-04-03T03:45:43;4.60;91.60
7046;DHT22;3564;53.326;10.356;2023-04-03T03:48:09;4.60;91.70
7046;DHT22;3564;53.326;10.356;2023-04-03T03:50:35;4.60;91.60
7046;DHT22;3564;53.326;10.356;2023-04-03T03:53:00;4.60;91.60
7046;DHT22;3564;53.326;10.356;2023-04-03T03:55:26;4.60;91.50
7046;DHT22;3564;53.326;10.356;2023-04-03T03:57:52;4.50;91.50
7046;DHT22;3564;53.326;10.356;2023-04-03T04:00:17;4.60;91.60
7046;DHT22;3564;53.326;10.356;2023-04-03T04:02:43;4.50;91.50
7046;DHT22;3564;53.326;10.356;2023-04-03T04:05:09;4.50;91.60
7046;DHT22;3564;53.326;10.356;2023-04-03T04:07:35;4.50;91.60
7046;DHT22;3564;53.326;10.356;2023-04-03T04:10:00;4.50;91.70
7046;DHT22;3564;53.326;10.356;2023-04-03T04:12:26;4.40;92.00
7046;DHT22;3564;53.326;10.356;2023-04-03T04:14:52;4.50;91.80
7046;DHT22;3564;53.326;10.356;2023-04-03T04:17:17;4.40;91.60
7046;DHT22;3564;53.326;10.356;2023-04-03T04:19:43;4.40;91.60
7046;DHT22;3564;53.326;10.356;2023-04-03T04:22:09;4.40;91.50
7046;DHT22;3564;53.326;10.356;2023-04-03T04:24:34;4.40;91.40
7046;DHT22;3564;53.326;10.356;2023-04-03T04:27:00;4.30;91.50
7046;DHT22;3564;53.326;10.356;2023-04-03T04:29:25;4.30;91.60
7046;DHT22;3564;53.326;10.356;2023-04-03T04:31:51;4.30;91.70
7046;DHT22;3564;53.326;10.356;2023-04-03T04:34:16;4.30;91.70
7046;DHT22;3564;53.326;10.356;2023-04-03T04:36:42;4.20;91.60
7046;DHT22;3564;53.326;10.356;2023-04-03T04:39:08;4.20;91.60
7046;DHT22;3564;53.326;10.356;2023-04-03T04:41:34;4.20;91.70
7046;DHT22;3564;53.326;10.356;2023-04-03T04:43:59;4.20;91.70
7046;DHT22;3564;53.326;10.356;2023-04-03T04:46:25;4.20;91.50
7046;DHT22;3564;53.326;10.356;2023-04-03T04:48:51;4.10;91.40
7046;DHT22;3564;53.326;10.356;2023-04-03T04:51:16;4.10;91.50
7046;DHT22;3564;53.326;10.356;2023-04-03T04:53:42;4.10;91.70
7046;DHT22;3564;53.326;10.356;2023-04-03T04:56:08;4.10;91.70
7046;DHT22;3564;53.326;10.356;2023-04-03T04:58:34;4.10;91.80
7046;DHT22;3564;53.326;10.356;2023-04-03T05:01:08;4.10;91.80
7046;DHT22;3564;53.326;10.356;2023-04-03T05:03:34;4.10;91.80
7046;DHT22;3564;53.326;10.356;2023-04-03T05:06:00;4.10;91.80
7046;DHT22;3564;53.326;10.356;2023-04-03T05:08:25;4.10;91.90
7046;DHT22;3564;53.326;10.356;2023-04-03T05:10:51;4.00;91.90
7046;DHT22;3564;53.326;10.356;2023-04-03T05:13:17;4.10;92.00
7046;DHT22;3564;53.326;10.356;2023-04-03T05:15:42;4.00;92.10
7046;DHT22;3564;53.326;10.356;2023-04-03T05:18:08;4.10;92.20
7046;DHT22;3564;53.326;10.356;2023-04-03T05:20:34;4.10;92.10
7046;DHT22;3564;53.326;10.356;2023-04-03T05:23:00;4.10;92.20
7046;DHT22;3564;53.326;10.356;2023-04-03T05:25:26;4.10;92.20
7046;DHT22;3564;53.326;10.356;2023-04-03T05:27:51;4.10;92.30
7046;DHT22;3564;53.326;10.356;2023-04-03T05:30:17;4.10;92.30
7046;DHT22;3564;53.326;10.356;2023-04-03T05:32:43;4.10;92.60
7046;DHT22;3564;53.326;10.356;2023-04-03T05:35:09;4.10;92.40
7046;DHT22;3564;53.326;10.356;2023-04-03T05:37:36;4.10;92.40
7046;DHT22;3564;53.326;10.356;2023-04-03T05:40:03;4.10;92.40
7046;DHT22;3564;53.326;10.356;2023-04-03T05:42:28;4.10;92.40
7046;DHT22;3564;53.326;10.356;2023-04-03T05:44:55;4.10;92.60
7046;DHT22;3564;53.326;10.356;2023-04-03T05:47:20;4.10;92.70
7046;DHT22;3564;53.326;10.356;2023-04-03T05:49:49;4.10;92.70
7046;DHT22;3564;53.326;10.356;2023-04-03T05:52:26;4.20;92.80
7046;DHT22;3564;53.326;10.356;2023-04-03T05:55:08;4.20;92.90
7046;DHT22;3564;53.326;10.356;2023-04-03T05:57:33;4.20;92.90
7046;DHT22;3564;53.326;10.356;2023-04-03T05:59:59;4.20;93.00
7046;DHT22;3564;53.326;10.356;2023-04-03T06:02:25;4.30;93.10
7046;DHT22;3564;53.326;10.356;2023-04-03T06:04:52;4.30;93.20
7046;DHT22;3564;53.326;10.356;2023-04-03T06:07:21;4.30;93.30
7046;DHT22;3564;53.326;10.356;2023-04-03T06:09:51;4.40;93.50
7046;DHT22;3564;53.326;10.356;2023-04-03T06:12:17;4.40;93.60
7046;DHT22;3564;53.326;10.356;2023-04-03T06:14:43;4.40;93.60
7046;DHT22;3564;53.326;10.356;2023-04-03T06:17:11;4.50;93.80
7046;DHT22;3564;53.326;10.356;2023-04-03T06:19:38;4.50;93.80
7046;DHT22;3564;53.326;10.356;2023-04-03T06:22:04;4.60;94.00
7046;DHT22;3564;53.326;10.356;2023-04-03T06:24:31;4.60;94.10
7046;DHT22;3564;53.326;10.356;2023-04-03T06:26:57;4.70;94.20
7046;DHT22;3564;53.326;10.356;2023-04-03T06:29:23;4.70;94.20
7046;DHT22;3564;53.326;10.356;2023-04-03T06:31:50;4.80;94.30
7046;DHT22;3564;53.326;10.356;2023-04-03T06:34:16;4.80;94.30
7046;DHT22;3564;53.326;10.356;2023-04-03T06:36:44;4.90;94.40
7046;DHT22;3564;53.326;10.356;2023-04-03T06:39:16;5.00;94.50
7046;DHT22;3564;53.326;10.356;2023-04-03T06:41:42;5.00;94.40
7046;DHT22;3564;53.326;10.356;2023-04-03T06:44:08;5.10;94.50
7046;DHT22;3564;53.326;10.356;2023-04-03T06:46:37;5.10;94.50
7046;DHT22;3564;53.326;10.356;2023-04-03T06:49:03;5.20;94.50
7046;DHT22;3564;53.326;10.356;2023-04-03T06:51:30;5.20;94.40
7046;DHT22;3564;53.326;10.356;2023-04-03T06:53:57;5.30;94.40
7046;DHT22;3564;53.326;10.356;2023-04-03T06:56:25;5.30;94.30
7046;DHT22;3564;53.326;10.356;2023-04-03T06:58:52;5.40;94.30
7046;DHT22;3564;53.326;10.356;2023-04-03T07:01:20;5.50;94.30
7046;DHT22;3564;53.326;10.356;2023-04-03T07:03:47;5.50;94.30
7046;DHT22;3564;53.326;10.356;2023-04-03T07:06:15;5.60;94.30
7046;DHT22;3564;53.326;10.356;2023-04-03T07:08:44;5.70;94.40
7046;DHT22;3564;53.326;10.356;2023-04-03T07:11:11;5.70;94.40
7046;DHT22;3564;53.326;10.356;2023-04-03T07:13:39;5.80;94.40
7046;DHT22;3564;53.326;10.356;2023-04-03T07:16:07;5.90;94.40
7046;DHT22;3564;53.326;10.356;2023-04-03T07:18:33;6.00;94.30
7046;DHT22;3564;53.326;10.356;2023-04-03T07:20:59;6.10;94.20
7046;DHT22;3564;53.326;10.356;2023-04-03T07:23:24;6.20;94.20
7046;DHT22;3564;53.326;10.356;2023-04-03T07:25:51;6.20;94.10
7046;DHT22;3564;53.326;10.356;2023-04-03T07:28:18;6.40;94.00
7046;DHT22;3564;53.326;10.356;2023-04-03T07:30:52;6.40;93.80
7046;DHT22;3564;53.326;10.356;2023-04-03T07:33:20;6.50;93.70
7046;DHT22;3564;53.326;10.356;2023-04-03T07:35:46;6.60;93.90
7046;DHT22;3564;53.326;10.356;2023-04-03T07:38:12;6.60;93.40
7046;DHT22;3564;53.326;10.356;2023-04-03T07:40:38;6.70;93.30
7046;DHT22;3564;53.326;10.356;2023-04-03T07:43:05;6.80;92.70
7046;DHT22;3564;53.326;10.356;2023-04-03T07:45:31;6.80;92.30
7046;DHT22;3564;53.326;10.356;2023-04-03T07:47:57;6.90;92.10
7046;DHT22;3564;53.326;10.356;2023-04-03T07:50:23;6.90;91.90
7046;DHT22;3564;53.326;10.356;2023-04-03T07:52:48;7.00;91.90
7046;DHT22;3564;53.326;10.356;2023-04-03T07:55:17;7.00;91.90
7046;DHT22;3564;53.326;10.356;2023-04-03T07:57:43;7.10;91.70
7046;DHT22;3564;53.326;10.356;2023-04-03T08:00:09;7.10;91.60
7046;DHT22;3564;53.326;10.356;2023-04-03T08:02:35;7.20;91.40
7046;DHT22;3564;53.326;10.356;2023-04-03T08:05:03;7.20;91.20
7046;DHT22;3564;53.326;10.356;2023-04-03T08:07:29;7.30;91.00
7046;DHT22;3564;53.326;10.356;2023-04-03T08:09:54;7.40;90.90
7046;DHT22;3564;53.326;10.356;2023-04-03T08:12:20;7.40;90.90
7046;DHT22;3564;53.326;10.356;2023-04-03T08:14:46;7.50;90.80
7046;DHT22;3564;53.326;10.356;2023-04-03T08:17:11;7.60;90.80
7046;DHT22;3564;53.326;10.356;2023-04-03T08:19:38;7.70;90.70
7046;DHT22;3564;53.326;10.356;2023-04-03T08:22:04;7.80;90.60
7046;DHT22;3564;53.326;10.356;2023-04-03T08:24:33;7.80;90.40
7046;DHT22;3564;53.326;10.356;2023-04-03T08:27:00;7.90;90.50
7046;DHT22;3564;53.326;10.356;2023-04-03T08:29:26;8.00;90.60
7046;DHT22;3564;53.326;10.356;2023-04-03T08:31:51;8.00;90.20
7046;DHT22;3564;53.326;10.356;2023-04-03T08:34:17;8.00;90.00
7046;DHT22;3564;53.326;10.356;2023-04-03T08:36:43;8.10;90.00
7046;DHT22;3564;53.326;10.356;2023-04-03T08:39:09;8.10;90.20
7046;DHT22;3564;53.326;10.356;2023-04-03T08:45:07;8.20;89.80
7046;DHT22;3564;53.326;10.356;2023-04-03T08:52:04;8.50;89.30
7046;DHT22;3564;53.326;10.356;2023-04-03T08:54:34;8.50;87.50
7046;DHT22;3564;53.326;10.356;2023-04-03T08:57:02;8.50;87.30
7046;DHT22;3564;53.326;10.356;2023-04-03T08:59:34;8.60;86.30
7046;DHT22;3564;53.326;10.356;2023-04-03T09:02:02;8.70;86.50
7046;DHT22;3564;53.326;10.356;2023-04-03T09:04:32;8.80;86.00
7046;DHT22;3564;53.326;10.356;2023-04-03T09:07:07;8.90;85.40
7046;DHT22;3564;53.326;10.356;2023-04-03T09:09:41;9.00;84.80
7046;DHT22;3564;53.326;10.356;2023-04-03T09:17:37;9.20;82.90
7046;DHT22;3564;53.326;10.356;2023-04-03T09:22:59;9.40;82.30
7046;DHT22;3564;53.326;10.356;2023-04-03T09:25:42;9.50;82.00
7046;DHT22;3564;53.326;10.356;2023-04-03T09:28:09;9.50;82.30
7046;DHT22;3564;53.326;10.356;2023-04-03T09:30:36;9.60;82.00
7046;DHT22;3564;53.326;10.356;2023-04-03T09:33:03;9.70;82.30
7046;DHT22;3564;53.326;10.356;2023-04-03T09:35:32;9.80;82.00
7046;DHT22;3564;53.326;10.356;2023-04-03T09:38:15;9.90;81.90
7046;DHT22;3564;53.326;10.356;2023-04-03T09:40:46;10.00;80.70
7046;DHT22;3564;53.326;10.356;2023-04-03T09:43:26;10.10;80.20
7046;DHT22;3564;53.326;10.356;2023-04-03T09:45:53;10.10;79.90
7046;DHT22;3564;53.326;10.356;2023-04-03T09:48:23;10.20;80.00
7046;DHT22;3564;53.326;10.356;2023-04-03T09:50:57;10.40;79.80
7046;DHT22;3564;53.326;10.356;2023-04-03T09:56:00;10.60;78.70
7046;DHT22;3564;53.326;10.356;2023-04-03T09:58:39;10.60;78.50
7046;DHT22;3564;53.326;10.356;2023-04-03T10:01:25;10.70;77.40
7046;DHT22;3564;53.326;10.356;2023-04-03T10:06:34;10.90;76.20
7046;DHT22;3564;53.326;10.356;2023-04-03T10:09:25;11.00;77.10
7046;DHT22;3564;53.326;10.356;2023-04-03T10:12:09;11.10;77.30
7046;DHT22;3564;53.326;10.356;2023-04-03T10:14:58;11.20;77.40
7046;DHT22;3564;53.326;10.356;2023-04-03T10:20:30;11.40;77.30
7046;DHT22;3564;53.326;10.356;2023-04-03T10:34:40;11.80;74.80
7046;DHT22;3564;53.326;10.356;2023-04-03T10:37:27;12.00;73.90
7046;DHT22;3564;53.326;10.356;2023-04-03T10:46:00;12.40;73.50
7046;DHT22;3564;53.326;10.356;2023-04-03T10:51:37;12.70;71.80
7046;DHT22;3564;53.326;10.356;2023-04-03T10:54:12;12.80;71.40
7046;DHT22;3564;53.326;10.356;2023-04-03T10:56:51;12.90;71.80
7046;DHT22;3564;53.326;10.356;2023-04-03T10:59:21;13.00;72.90
7046;DHT22;3564;53.326;10.356;2023-04-03T11:01:53;13.00;72.20
7046;DHT22;3564;53.326;10.356;2023-04-03T11:04:21;13.10;71.70
7046;DHT22;3564;53.326;10.356;2023-04-03T11:14:55;13.10;70.10
7046;DHT22;3564;53.326;10.356;2023-04-03T11:17:27;13.00;70.30
7046;DHT22;3564;53.326;10.356;2023-04-03T11:20:30;13.00;70.70
7046;DHT22;3564;53.326;10.356;2023-04-03T11:25:50;13.10;71.20
7046;DHT22;3564;53.326;10.356;2023-04-03T11:28:17;13.10;70.30
7046;DHT22;3564;53.326;10.356;2023-04-03T11:31:13;13.10;70.60
7046;DHT22;3564;53.326;10.356;2023-04-03T11:36:29;13.20;70.90
7046;DHT22;3564;53.326;10.356;2023-04-03T11:38:59;13.30;70.70
7046;DHT22;3564;53.326;10.356;2023-04-03T11:41:30;13.30;71.10
7046;DHT22;3564;53.326;10.356;2023-04-03T11:44:04;13.30;71.00
7046;DHT22;3564;53.326;10.356;2023-04-03T11:46:55;13.40;69.60
7046;DHT22;3564;53.326;10.356;2023-04-03T11:49:59;13.40;69.70
7046;DHT22;3564;53.326;10.356;2023-04-03T12:08:43;13.20;68.50
7046;DHT22;3564;53.326;10.356;2023-04-03T12:24:31;13.40;69.20
7046;DHT22;3564;53.326;10.356;2023-04-03T12:40:27;13.20;66.20
7046;DHT22;3564;53.326;10.356;2023-04-03T12:48:24;13.20;67.50
7046;DHT22;3564;53.326;10.356;2023-04-03T12:50:51;13.20;67.50
7046;DHT22;3564;53.326;10.356;2023-04-03T12:53:31;13.30;66.70
7046;DHT22;3564;53.326;10.356;2023-04-03T12:58:44;13.50;67.00
7046;DHT22;3564;53.326;10.356;2023-04-03T13:01:13;13.60;67.10
7046;DHT22;3564;53.326;10.356;2023-04-03T13:03:45;13.70;66.60
7046;DHT22;3564;53.326;10.356;2023-04-03T13:06:33;13.80;65.70
7046;DHT22;3564;53.326;10.356;2023-04-03T13:09:01;13.90;66.20
7046;DHT22;3564;53.326;10.356;2023-04-03T13:11:41;14.00;67.10
7046;DHT22;3564;53.326;10.356;2023-04-03T13:14:21;14.00;65.10
7046;DHT22;3564;53.326;10.356;2023-04-03T13:17:06;14.10;65.90
7046;DHT22;3564;53.326;10.356;2023-04-03T13:19:31;14.20;65.90
7046;DHT22;3564;53.326;10.356;2023-04-03T13:22:02;14.20;66.10
7046;DHT22;3564;53.326;10.356;2023-04-03T13:24:30;14.30;65.80
7046;DHT22;3564;53.326;10.356;2023-04-03T13:27:01;14.40;65.40
7046;DHT22;3564;53.326;10.356;2023-04-03T13:29:33;14.40;66.30
7046;DHT22;3564;53.326;10.356;2023-04-03T13:32:03;14.40;64.90
7046;DHT22;3564;53.326;10.356;2023-04-03T13:34:40;14.30;63.90
7046;DHT22;3564;53.326;10.356;2023-04-03T13:37:11;14.30;65.00
7046;DHT22;3564;53.326;10.356;2023-04-03T13:39:56;14.40;66.50
7046;DHT22;3564;53.326;10.356;2023-04-03T13:42:30;14.40;65.40
7046;DHT22;3564;53.326;10.356;2023-04-03T13:47:46;14.30;64.20
7046;DHT22;3564;53.326;10.356;2023-04-03T13:53:11;14.20;65.50
7046;DHT22;3564;53.326;10.356;2023-04-03T13:58:33;14.30;65.40
7046;DHT22;3564;53.326;10.356;2023-04-03T14:01:11;14.40;65.00
7046;DHT22;3564;53.326;10.356;2023-04-03T14:03:52;14.40;65.00
7046;DHT22;3564;53.326;10.356;2023-04-03T14:06:18;14.50;64.20
7046;DHT22;3564;53.326;10.356;2023-04-03T14:08:46;14.60;64.00
7046;DHT22;3564;53.326;10.356;2023-04-03T14:11:24;14.70;63.40
7046;DHT22;3564;53.326;10.356;2023-04-03T14:13:58;14.80;63.60
7046;DHT22;3564;53.326;10.356;2023-04-03T14:16:30;15.00;64.50
7046;DHT22;3564;53.326;10.356;2023-04-03T14:18:58;15.10;64.90
7046;DHT22;3564;53.326;10.356;2023-04-03T14:21:24;15.10;63.10
7046;DHT22;3564;53.326;10.356;2023-04-03T14:23:50;15.10;61.80
7046;DHT22;3564;53.326;10.356;2023-04-03T14:26:22;15.10;61.20
7046;DHT22;3564;53.326;10.356;2023-04-03T14:28:50;15.10;63.30
7046;DHT22;3564;53.326;10.356;2023-04-03T14:31:16;15.20;63.30
7046;DHT22;3564;53.326;10.356;2023-04-03T14:33:43;15.40;62.40
7046;DHT22;3564;53.326;10.356;2023-04-03T14:36:15;15.50;62.80
7046;DHT22;3564;53.326;10.356;2023-04-03T14:38:43;15.60;62.50
7046;DHT22;3564;53.326;10.356;2023-04-03T14:41:12;15.80;61.20
7046;DHT22;3564;53.326;10.356;2023-04-03T14:43:42;15.90;59.40
7046;DHT22;3564;53.326;10.356;2023-04-03T14:46:16;16.00;60.00
7046;DHT22;3564;53.326;10.356;2023-04-03T14:48:45;16.00;59.80
7046;DHT22;3564;53.326;10.356;2023-04-03T14:51:17;16.10;61.20
7046;DHT22;3564;53.326;10.356;2023-04-03T14:53:44;16.30;62.20
7046;DHT22;3564;53.326;10.356;2023-04-03T14:56:19;16.90;62.00
7046;DHT22;3564;53.326;10.356;2023-04-03T14:58:54;18.40;61.40
7046;DHT22;3564;53.326;10.356;2023-04-03T15:01:20;20.50;59.00
7046;DHT22;3564;53.326;10.356;2023-04-03T15:03:46;22.20;55.40
7046;DHT22;3564;53.326;10.356;2023-04-03T15:06:15;22.70;53.60
7046;DHT22;3564;53.326;10.356;2023-04-03T15:08:42;23.70;53.40
7046;DHT22;3564;53.326;10.356;2023-04-03T15:11:09;25.10;51.70
7046;DHT22;3564;53.326;10.356;2023-04-03T15:13:35;26.50;49.10
7046;DHT22;3564;53.326;10.356;2023-04-03T15:16:01;27.70;47.00
7046;DHT22;3564;53.326;10.356;2023-04-03T15:18:30;28.80;44.90
7046;DHT22;3564;53.326;10.356;2023-04-03T15:20:58;29.70;43.50
7046;DHT22;3564;53.326;10.356;2023-04-03T15:23:23;30.50;41.00
7046;DHT22;3564;53.326;10.356;2023-04-03T15:25:52;30.90;40.40
7046;DHT22;3564;53.326;10.356;2023-04-03T15:28:28;31.20;38.80
7046;DHT22;3564;53.326;10.356;2023-04-03T15:30:58;31.20;37.20
7046;DHT22;3564;53.326;10.356;2023-04-03T15:33:24;31.30;36.60
7046;DHT22;3564;53.326;10.356;2023-04-03T15:35:50;31.20;36.30
7046;DHT22;3564;53.326;10.356;2023-04-03T15:38:16;31.10;36.30
7046;DHT22;3564;53.326;10.356;2023-04-03T15:40:41;30.90;35.80
7046;DHT22;3564;53.326;10.356;2023-04-03T15:43:09;30.60;35.70
7046;DHT22;3564;53.326;10.356;2023-04-03T15:45:36;30.20;35.70
7046;DHT22;3564;53.326;10.356;2023-04-03T15:48:05;29.90;35.50
7046;DHT22;3564;53.326;10.356;2023-04-03T15:50:32;29.50;35.30
7046;DHT22;3564;53.326;10.356;2023-04-03T15:52:58;29.00;36.10
7046;DHT22;3564;53.326;10.356;2023-04-03T15:55:29;28.60;36.10
7046;DHT22;3564;53.326;10.356;2023-04-03T15:57:56;28.20;36.50
7046;DHT22;3564;53.326;10.356;2023-04-03T16:00:25;27.90;35.80
7046;DHT22;3564;53.326;10.356;2023-04-03T16:02:53;27.60;36.80
7046;DHT22;3564;53.326;10.356;2023-04-03T16:05:20;27.30;36.70
7046;DHT22;3564;53.326;10.356;2023-04-03T16:07:46;27.00;36.20
7046;DHT22;3564;53.326;10.356;2023-04-03T16:10:15;26.70;36.30
7046;DHT22;3564;53.326;10.356;2023-04-03T16:12:41;26.40;36.60
7046;DHT22;3564;53.326;10.356;2023-04-03T16:15:07;26.10;36.50
7046;DHT22;3564;53.326;10.356;2023-04-03T16:17:34;25.80;37.20
7046;DHT22;3564;53.326;10.356;2023-04-03T16:20:01;25.40;38.40
7046;DHT22;3564;53.326;10.356;2023-04-03T16:22:27;25.00;38.60
7046;DHT22;3564;53.326;10.356;2023-04-03T16:24:54;24.60;38.30
7046;DHT22;3564;53.326;10.356;2023-04-03T16:27:20;24.20;38.20
7046;DHT22;3564;53.326;10.356;2023-04-03T16:29:46;23.70;38.40
7046;DHT22;3564;53.326;10.356;2023-04-03T16:32:13;23.20;38.60
7046;DHT22;3564;53.326;10.356;2023-04-03T16:34:39;22.90;39.10
7046;DHT22;3564;53.326;10.356;2023-04-03T16:37:06;22.50;39.60
7046;DHT22;3564;53.326;10.356;2023-04-03T16:39:34;22.20;40.60
7046;DHT22;3564;53.326;10.356;2023-04-03T16:42:00;21.80;41.30
7046;DHT22;3564;53.326;10.356;2023-04-03T16:44:29;21.30;41.30
7046;DHT22;3564;53.326;10.356;2023-04-03T16:46:54;20.90;41.20
7046;DHT22;3564;53.326;10.356;2023-04-03T16:49:20;20.40;41.90
7046;DHT22;3564;53.326;10.356;2023-04-03T16:51:45;19.90;41.60
7046;DHT22;3564;53.326;10.356;2023-04-03T16:54:21;19.50;41.50
7046;DHT22;3564;53.326;10.356;2023-04-03T16:56:46;19.00;41.70
7046;DHT22;3564;53.326;10.356;2023-04-03T16:59:15;18.60;42.70
7046;DHT22;3564;53.326;10.356;2023-04-03T17:01:41;18.30;43.10
7046;DHT22;3564;53.326;10.356;2023-04-03T17:04:06;18.00;43.10
7046;DHT22;3564;53.326;10.356;2023-04-03T17:06:32;17.70;42.30
7046;DHT22;3564;53.326;10.356;2023-04-03T17:08:58;17.40;42.10
7046;DHT22;3564;53.326;10.356;2023-04-03T17:11:23;17.10;42.80
7046;DHT22;3564;53.326;10.356;2023-04-03T17:13:49;16.70;43.30
7046;DHT22;3564;53.326;10.356;2023-04-03T17:16:17;16.40;43.90
7046;DHT22;3564;53.326;10.356;2023-04-03T17:18:47;16.20;45.00
7046;DHT22;3564;53.326;10.356;2023-04-03T17:21:13;15.90;45.80
7046;DHT22;3564;53.326;10.356;2023-04-03T17:23:44;15.70;46.40
7046;DHT22;3564;53.326;10.356;2023-04-03T17:26:11;15.40;46.50
7046;DHT22;3564;53.326;10.356;2023-04-03T17:28:40;15.20;46.70
7046;DHT22;3564;53.326;10.356;2023-04-03T17:31:06;14.90;47.00
7046;DHT22;3564;53.326;10.356;2023-04-03T17:33:32;14.80;48.00
7046;DHT22;3564;53.326;10.356;2023-04-03T17:35:58;14.60;48.60
7046;DHT22;3564;53.326;10.356;2023-04-03T17:38:26;14.40;49.10
7046;DHT22;3564;53.326;10.356;2023-04-03T17:40:55;14.20;49.90
7046;DHT22;3564;53.326;10.356;2023-04-03T17:43:20;14.10;49.60
7046;DHT22;3564;53.326;10.356;2023-04-03T17:45:46;13.90;49.70
7046;DHT22;3564;53.326;10.356;2023-04-03T17:48:11;13.80;49.90
7046;DHT22;3564;53.326;10.356;2023-04-03T17:50:37;13.70;50.30
7046;DHT22;3564;53.326;10.356;2023-04-03T17:53:02;13.60;50.80
7046;DHT22;3564;53.326;10.356;2023-04-03T17:55:28;13.50;50.90
7046;DHT22;3564;53.326;10.356;2023-04-03T17:57:54;13.40;51.40
7046;DHT22;3564;53.326;10.356;2023-04-03T18:00:19;13.20;51.70
7046;DHT22;3564;53.326;10.356;2023-04-03T18:02:45;13.10;51.60
7046;DHT22;3564;53.326;10.356;2023-04-03T18:05:11;13.00;51.70